KIKW

Jack Barstow Airport

Midland, Michigan, USA
METAR KIKW 151555Z AUTO 00000KT 5SM BR CLR 00/00 A3023 RMK AO2 T00000000
Observed Flight Rules
Dec-15 @ 15:55 UTC (9 minutes ago) Marginal Visual Flight Rules
Visibility Clouds Conditions
5 miles
  • Clear skies
  • Mist
Temperatures Readings
Current 0°C / 32°F
Dewpoint 0°C / 32°F
Humidity 100%
Altimeter 30.23" Hg
Pressure 1024 hPa
Elevation 194
METAR KIKW 151555Z AUTO 00000KT 5SM BR CLR 00/00 A3023 RMK AO2 T00000000
Observed Flight Rules
Dec-15 @ 15:55 UTC
(9 minutes ago)
MVFR
Clouds
  • Clear skies
Conditions
  • Mist
Temperature Dewpoint
0°C / 32°F 0°C / 32°F
Humidity Altimeter Pressure
100% 30.23" Hg 1024 hPa